createdAt,value
2018-05-10T00:00:54.373Z,0
2018-05-10T00:02:03.205Z,0
2018-05-10T00:03:12.043Z,0
2018-05-10T00:04:20.889Z,0
2018-05-10T00:05:30.005Z,0
2018-05-10T00:06:38.841Z,0
2018-05-10T00:07:47.722Z,0
2018-05-10T00:08:56.875Z,0
2018-05-10T00:10:05.989Z,0
2018-05-10T00:11:14.826Z,0
2018-05-10T00:12:23.665Z,0
2018-05-10T00:13:32.781Z,0
2018-05-10T00:14:41.625Z,0
2018-05-10T00:15:50.460Z,0
2018-05-10T00:16:59.305Z,0
2018-05-10T00:18:08.521Z,0
2018-05-10T00:19:17.364Z,0
2018-05-10T00:20:26.205Z,0
2018-05-10T00:21:35.053Z,0
2018-05-10T00:22:43.884Z,0
2018-05-10T00:23:52.924Z,0
2018-05-10T00:25:02.047Z,0
2018-05-10T00:26:10.887Z,0
2018-05-10T00:27:19.718Z,0
2018-05-10T00:28:28.555Z,0
2018-05-10T00:29:37.551Z,0
2018-05-10T00:30:46.673Z,0
2018-05-10T00:31:55.510Z,0
2018-05-10T00:33:04.347Z,0
2018-05-10T00:34:13.183Z,0
2018-05-10T00:35:22.374Z,0
2018-05-10T00:36:31.207Z,0
2018-05-10T00:37:40.047Z,0
2018-05-10T00:38:49.159Z,0
2018-05-10T00:39:57.994Z,0
2018-05-10T00:41:06.834Z,0
2018-05-10T00:42:15.956Z,0
2018-05-10T00:43:24.804Z,0
2018-05-10T00:44:33.642Z,0
2018-05-10T00:45:42.480Z,0
2018-05-10T00:46:51.418Z,0
2018-05-10T00:48:00.249Z,0
2018-05-10T00:49:09.091Z,0
2018-05-10T00:50:18.203Z,0
2018-05-10T00:51:27.043Z,0
2018-05-10T00:52:35.931Z,0
2018-05-10T00:53:44.769Z,0
2018-05-10T00:54:53.603Z,0
2018-05-10T00:56:02.440Z,0
2018-05-10T00:57:11.276Z,0
2018-05-10T00:58:20.313Z,0
2018-05-10T00:59:29.152Z,0
2018-05-10T01:00:38.268Z,0
2018-05-10T01:01:47.107Z,0
2018-05-10T01:02:55.943Z,0
2018-05-10T01:04:05.415Z,0
2018-05-10T01:05:14.243Z,0
2018-05-10T01:06:23.079Z,0
2018-05-10T01:07:32.193Z,0
2018-05-10T01:08:41.305Z,0
2018-05-10T01:09:50.289Z,0
2018-05-10T01:10:59.129Z,0
2018-05-10T01:12:08.063Z,0
2018-05-10T01:13:16.903Z,0
2018-05-10T01:14:25.740Z,0
2018-05-10T01:15:34.726Z,0
2018-05-10T01:16:43.565Z,0
2018-05-10T01:17:52.404Z,0
2018-05-10T01:19:01.243Z,0
2018-05-10T01:20:10.354Z,0
2018-05-10T01:21:19.484Z,0
2018-05-10T01:22:28.323Z,0
2018-05-10T01:23:37.158Z,0
2018-05-10T01:24:46.269Z,0
2018-05-10T01:25:55.107Z,0
2018-05-10T01:27:04.094Z,0
2018-05-10T01:28:12.933Z,0
2018-05-10T01:29:21.766Z,0
2018-05-10T01:30:30.872Z,0
2018-05-10T01:31:39.709Z,0
2018-05-10T01:32:48.552Z,0
2018-05-10T01:33:57.389Z,0
2018-05-10T01:35:06.500Z,0
2018-05-10T01:36:15.617Z,0
2018-05-10T01:37:24.453Z,0
2018-05-10T01:38:33.641Z,0
2018-05-10T01:39:42.482Z,0
2018-05-10T01:40:51.317Z,0
2018-05-10T01:42:00.154Z,0
2018-05-10T01:43:09.272Z,0
2018-05-10T01:44:18.158Z,0
2018-05-10T01:45:26.995Z,0
2018-05-10T01:46:35.861Z,0
2018-05-10T01:47:44.668Z,0
2018-05-10T01:48:53.778Z,0
2018-05-10T01:50:02.894Z,0
2018-05-10T01:51:11.733Z,0
2018-05-10T01:52:20.846Z,0
2018-05-10T01:53:29.684Z,0
2018-05-10T01:54:38.520Z,0
2018-05-10T01:55:48.060Z,0
2018-05-10T01:56:57.173Z,0
2018-05-10T01:58:06.013Z,0
2018-05-10T01:59:14.849Z,0
2018-05-10T02:00:23.690Z,0
2018-05-10T02:01:32.726Z,0
2018-05-10T02:02:41.838Z,0
2018-05-10T02:03:50.679Z,0
2018-05-10T02:04:59.518Z,0
2018-05-10T02:06:08.359Z,0
2018-05-10T02:07:17.576Z,0
2018-05-10T02:08:26.409Z,0
2018-05-10T02:09:35.243Z,0
2018-05-10T02:10:44.360Z,0
2018-05-10T02:11:53.197Z,0
2018-05-10T02:13:02.184Z,0
2018-05-10T02:14:11.575Z,0
2018-05-10T02:15:20.687Z,0
2018-05-10T02:16:29.522Z,0
2018-05-10T02:17:38.361Z,0
2018-05-10T02:18:47.349Z,0
2018-05-10T02:19:56.187Z,0
2018-05-10T02:21:05.300Z,0
2018-05-10T02:22:14.141Z,0
2018-05-10T02:23:22.978Z,0
2018-05-10T02:24:32.164Z,0
2018-05-10T02:25:41.000Z,0
2018-05-10T02:26:50.110Z,0
2018-05-10T02:27:58.946Z,0
2018-05-10T02:29:08.057Z,0
2018-05-10T02:30:17.047Z,0
2018-05-10T02:31:26.160Z,0
2018-05-10T02:32:35.553Z,0
2018-05-10T02:33:44.398Z,0
2018-05-10T02:34:53.230Z,0
2018-05-10T02:36:02.495Z,0
2018-05-10T02:37:11.615Z,0
2018-05-10T02:38:20.735Z,0
2018-05-10T02:39:30.415Z,0
2018-05-10T02:40:39.798Z,0
2018-05-10T02:41:48.736Z,0
2018-05-10T02:42:57.852Z,0
2018-05-10T02:44:06.966Z,0
2018-05-10T02:45:16.075Z,0
2018-05-10T02:46:25.196Z,0
2018-05-10T02:47:34.132Z,0
2018-05-10T02:48:43.798Z,0
2018-05-10T02:49:52.915Z,0
2018-05-10T02:51:02.032Z,0
2018-05-10T02:52:10.866Z,0
2018-05-10T02:53:19.725Z,0
2018-05-10T02:54:28.568Z,0
2018-05-10T02:55:37.764Z,0
2018-05-10T02:56:46.603Z,0
2018-05-10T02:57:55.717Z,0
2018-05-10T02:59:05.082Z,0
2018-05-10T03:00:14.194Z,0
2018-05-10T03:01:23.591Z,4
2018-05-10T03:02:32.980Z,4
2018-05-10T03:03:42.090Z,0
2018-05-10T03:04:51.357Z,4
2018-05-10T03:06:00.468Z,4
2018-05-10T03:07:09.857Z,4
2018-05-10T03:08:18.969Z,4
2018-05-10T03:09:28.093Z,4
2018-05-10T03:10:37.180Z,8
2018-05-10T03:11:46.590Z,8
2018-05-10T03:12:55.698Z,12
2018-05-10T03:14:04.540Z,12
2018-05-10T03:15:13.925Z,12
2018-05-10T03:16:22.912Z,12
2018-05-10T03:17:32.023Z,16
2018-05-10T03:18:41.410Z,16
2018-05-10T03:19:50.244Z,20
2018-05-10T03:20:59.358Z,24
2018-05-10T03:22:08.196Z,28
2018-05-10T03:23:17.305Z,32
2018-05-10T03:24:26.142Z,36
2018-05-10T03:25:35.255Z,44
2018-05-10T03:26:44.367Z,48
2018-05-10T03:27:53.578Z,48
2018-05-10T03:29:02.414Z,56
2018-05-10T03:30:11.817Z,64
2018-05-10T03:31:21.516Z,72
2018-05-10T03:32:30.356Z,80
2018-05-10T03:33:39.191Z,88
2018-05-10T03:34:48.026Z,100
2018-05-10T03:35:56.863Z,112
2018-05-10T03:37:05.701Z,120
2018-05-10T03:38:14.544Z,132
2018-05-10T03:39:23.481Z,144
2018-05-10T03:40:32.723Z,156
2018-05-10T03:41:41.530Z,172
2018-05-10T03:42:50.366Z,180
2018-05-10T03:43:59.202Z,196
2018-05-10T03:45:08.196Z,208
2018-05-10T03:46:17.341Z,220
2018-05-10T03:47:26.143Z,240
2018-05-10T03:48:34.979Z,252
2018-05-10T03:49:43.813Z,268
2018-05-10T03:50:52.751Z,284
2018-05-10T03:52:02.136Z,296
2018-05-10T03:53:10.971Z,312
2018-05-10T03:54:19.807Z,332
2018-05-10T03:55:28.919Z,348
2018-05-10T03:56:38.079Z,368
2018-05-10T03:57:46.918Z,388
2018-05-10T03:58:56.031Z,404
2018-05-10T04:00:05.204Z,424
2018-05-10T04:01:14.321Z,444
2018-05-10T04:02:23.307Z,464
2018-05-10T04:03:32.151Z,484
2018-05-10T04:04:41.259Z,500
2018-05-10T04:05:50.646Z,524
2018-05-10T04:06:59.484Z,544
2018-05-10T04:08:08.593Z,564
2018-05-10T04:09:17.436Z,584
2018-05-10T04:10:26.542Z,604
2018-05-10T04:11:35.653Z,624
2018-05-10T04:12:44.487Z,640
2018-05-10T04:13:53.322Z,664
2018-05-10T04:15:02.436Z,684
2018-05-10T04:16:11.273Z,700
2018-05-10T04:17:20.382Z,720
2018-05-10T04:18:29.222Z,740
2018-05-10T04:19:38.434Z,760
2018-05-10T04:20:47.541Z,780
2018-05-10T04:21:56.378Z,796
2018-05-10T04:23:05.212Z,820
2018-05-10T04:24:14.052Z,840
2018-05-10T04:25:23.091Z,856
2018-05-10T04:26:31.923Z,876
2018-05-10T04:27:40.762Z,892
2018-05-10T04:28:49.598Z,916
2018-05-10T04:29:58.433Z,932
2018-05-10T04:31:07.701Z,952
2018-05-10T04:32:16.541Z,972
2018-05-10T04:33:25.376Z,988
2018-05-10T04:34:34.214Z,1000
2018-05-10T04:35:43.387Z,1020
2018-05-10T04:36:52.931Z,1036
2018-05-10T04:38:02.041Z,1056
2018-05-10T04:39:10.876Z,1068
2018-05-10T04:40:19.712Z,1088
2018-05-10T04:41:28.551Z,1100
2018-05-10T04:42:37.487Z,1116
2018-05-10T04:43:46.326Z,1132
2018-05-10T04:44:55.461Z,1148
2018-05-10T04:46:04.300Z,1164
2018-05-10T04:47:13.144Z,1180
2018-05-10T04:48:22.433Z,1192
2018-05-10T04:49:31.271Z,1204
2018-05-10T04:50:40.108Z,1220
2018-05-10T04:51:48.946Z,1232
2018-05-10T04:52:57.786Z,1248
2018-05-10T04:54:06.623Z,1260
2018-05-10T04:55:15.455Z,1272
2018-05-10T04:56:24.566Z,1280
2018-05-10T04:57:33.401Z,1292
2018-05-10T04:58:42.239Z,1308
2018-05-10T04:59:51.075Z,1320
2018-05-10T05:00:59.913Z,1332
2018-05-10T05:02:08.748Z,1344
2018-05-10T05:03:17.910Z,1360
2018-05-10T05:04:26.689Z,1372
2018-05-10T05:05:35.905Z,1384
2018-05-10T05:06:44.741Z,1392
2018-05-10T05:07:53.577Z,1400
2018-05-10T05:09:02.470Z,1412
2018-05-10T05:10:11.659Z,1424
2018-05-10T05:11:20.598Z,1436
2018-05-10T05:12:29.433Z,1444
2018-05-10T05:13:38.269Z,1460
2018-05-10T05:14:47.108Z,1468
2018-05-10T05:15:55.947Z,1480
2018-05-10T05:17:04.942Z,1488
2018-05-10T05:18:14.348Z,1496
2018-05-10T05:19:23.182Z,1504
2018-05-10T05:20:32.018Z,1508
2018-05-10T05:21:40.854Z,1516
2018-05-10T05:22:49.838Z,1524
2018-05-10T05:23:58.674Z,1532
2018-05-10T05:25:07.513Z,1540
2018-05-10T05:26:16.900Z,1552
2018-05-10T05:27:25.739Z,1564
2018-05-10T05:28:34.576Z,1572
2018-05-10T05:29:43.412Z,1584
2018-05-10T05:30:52.807Z,1592
2018-05-10T05:32:01.927Z,1604
2018-05-10T05:33:11.037Z,1612
2018-05-10T05:34:20.077Z,1628
2018-05-10T05:35:28.944Z,1632
2018-05-10T05:36:37.854Z,1644
2018-05-10T05:37:48.042Z,1648
2018-05-10T05:38:56.886Z,1656
2018-05-10T05:40:05.987Z,1672
2018-05-10T05:41:16.080Z,1680
2018-05-10T05:42:25.263Z,1696
2018-05-10T05:43:34.187Z,1700
2018-05-10T05:44:42.949Z,1712
2018-05-10T05:45:51.837Z,1720
2018-05-10T05:47:00.674Z,1728
2018-05-10T05:48:09.509Z,1740
2018-05-10T05:49:18.345Z,1748
2018-05-10T05:50:27.182Z,1760
2018-05-10T05:51:36.245Z,1768
2018-05-10T05:52:45.084Z,1776
2018-05-10T05:53:53.923Z,1780
2018-05-10T05:55:02.784Z,1788
2018-05-10T05:56:11.980Z,1796
2018-05-10T05:57:20.918Z,1800
2018-05-10T05:58:30.030Z,1816
2018-05-10T05:59:39.142Z,1824
2018-05-10T06:00:48.002Z,1824
2018-05-10T06:01:57.098Z,1832
2018-05-10T06:03:06.262Z,1844
2018-05-10T06:04:15.105Z,1852
2018-05-10T06:05:24.219Z,1868
2018-05-10T06:06:33.450Z,1884
2018-05-10T06:07:42.296Z,1896
2018-05-10T06:08:51.556Z,1908
2018-05-10T06:10:00.394Z,1912
2018-05-10T06:11:09.514Z,1920
2018-05-10T06:12:18.356Z,1924
2018-05-10T06:13:27.190Z,1932
2018-05-10T06:14:36.229Z,1944
2018-05-10T06:15:45.124Z,1940
2018-05-10T06:16:54.179Z,1944
2018-05-10T06:18:03.019Z,1944
2018-05-10T06:19:12.132Z,1956
2018-05-10T06:20:21.406Z,1968
2018-05-10T06:21:30.247Z,1980
2018-05-10T06:22:39.360Z,1984
2018-05-10T06:23:48.198Z,1992
2018-05-10T06:24:57.194Z,2004
2018-05-10T06:26:06.744Z,2008
2018-05-10T06:27:15.581Z,2012
2018-05-10T06:28:24.417Z,2016
2018-05-10T06:29:33.254Z,2020
2018-05-10T06:30:42.094Z,2032
2018-05-10T06:31:50.930Z,2032
2018-05-10T06:32:59.767Z,2036
2018-05-10T06:34:08.891Z,2016
2018-05-10T06:35:18.007Z,2004
2018-05-10T06:36:26.846Z,2036
2018-05-10T06:37:35.735Z,2036
2018-05-10T06:38:44.573Z,2040
2018-05-10T06:39:53.682Z,2044
2018-05-10T06:41:02.805Z,2048
2018-05-10T06:42:11.755Z,2064
2018-05-10T06:43:20.878Z,2080
2018-05-10T06:44:29.722Z,2092
2018-05-10T06:45:38.849Z,2116
2018-05-10T06:46:48.361Z,2184
2018-05-10T06:47:57.826Z,2300
2018-05-10T06:49:06.997Z,2476
2018-05-10T06:50:15.834Z,2640
2018-05-10T06:51:24.673Z,2764
2018-05-10T06:52:33.512Z,2880
2018-05-10T06:53:42.376Z,3012
2018-05-10T06:54:51.311Z,3156
2018-05-10T06:56:00.152Z,3316
2018-05-10T06:57:09.274Z,3452
2018-05-10T06:58:18.424Z,3552
2018-05-10T06:59:27.265Z,3652
2018-05-10T07:00:36.430Z,3664
2018-05-10T07:01:45.501Z,3664
2018-05-10T07:02:54.685Z,3604
2018-05-10T07:04:03.822Z,3740
2018-05-10T07:05:12.749Z,3956
2018-05-10T07:06:21.704Z,4140
2018-05-10T07:07:30.557Z,4416
2018-05-10T07:08:39.762Z,4680
2018-05-10T07:09:48.658Z,4920
2018-05-10T07:10:57.898Z,5128
2018-05-10T07:12:06.898Z,5196
2018-05-10T07:13:17.046Z,5076
2018-05-10T07:14:25.911Z,4856
2018-05-10T07:15:34.753Z,4648
2018-05-10T07:16:43.614Z,4500
2018-05-10T07:17:53.122Z,4352
2018-05-10T07:19:01.961Z,4188
2018-05-10T07:20:10.803Z,4164
2018-05-10T07:21:19.649Z,4424
2018-05-10T07:22:28.771Z,4668
2018-05-10T07:23:37.609Z,4812
2018-05-10T07:24:46.453Z,4860
2018-05-10T07:25:55.310Z,4948
2018-05-10T07:27:04.213Z,5068
2018-05-10T07:28:13.056Z,5200
2018-05-10T07:29:23.610Z,5288
2018-05-10T07:30:32.728Z,5368
2018-05-10T07:31:41.567Z,5384
2018-05-10T07:32:50.429Z,5348
2018-05-10T07:33:59.246Z,5264
2018-05-10T07:35:08.192Z,5064
2018-05-10T07:36:17.033Z,4872
2018-05-10T07:37:25.876Z,4736
2018-05-10T07:38:34.991Z,4796
2018-05-10T07:39:44.377Z,5016
2018-05-10T07:40:53.375Z,5256
2018-05-10T07:42:02.242Z,5520
2018-05-10T07:43:11.431Z,5780
2018-05-10T07:44:20.553Z,5952
2018-05-10T07:45:29.393Z,6020
2018-05-10T07:46:38.589Z,6076
2018-05-10T07:47:47.708Z,6168
2018-05-10T07:48:56.822Z,6196
2018-05-10T07:50:05.660Z,6156
2018-05-10T07:51:14.778Z,6180
2018-05-10T07:52:23.617Z,6284
2018-05-10T07:53:32.736Z,6352
2018-05-10T07:54:41.610Z,6428
2018-05-10T07:55:50.785Z,6572
2018-05-10T07:56:59.637Z,6664
2018-05-10T07:58:08.639Z,6612
2018-05-10T07:59:17.501Z,6620
2018-05-10T08:00:26.637Z,6712
2018-05-10T08:01:35.498Z,6764
2018-05-10T08:02:44.625Z,6796
2018-05-10T08:03:53.472Z,6752
2018-05-10T08:05:02.324Z,6512
2018-05-10T08:06:11.164Z,6208
2018-05-10T08:07:20.005Z,5956
2018-05-10T08:08:28.848Z,5824
2018-05-10T08:09:38.311Z,5748
2018-05-10T08:10:47.430Z,5640
2018-05-10T08:11:56.272Z,5572
2018-05-10T08:13:05.112Z,5388
2018-05-10T08:14:13.972Z,5152
2018-05-10T08:15:22.822Z,5036
2018-05-10T08:16:31.674Z,4988
2018-05-10T08:17:40.526Z,4892
2018-05-10T08:18:49.653Z,4508
2018-05-10T08:19:58.509Z,4024
2018-05-10T08:21:07.512Z,3608
2018-05-10T08:22:16.367Z,3340
2018-05-10T08:23:25.217Z,3208
2018-05-10T08:24:34.091Z,3148
2018-05-10T08:25:43.220Z,3108
2018-05-10T08:26:52.695Z,3088
2018-05-10T08:28:01.543Z,3080
2018-05-10T08:29:10.392Z,3096
2018-05-10T08:30:19.345Z,3100
2018-05-10T08:31:28.491Z,3104
2018-05-10T08:33:07.373Z,3112
2018-05-10T08:34:16.497Z,3164
2018-05-10T08:35:25.387Z,3216
2018-05-10T08:36:34.341Z,3260
2018-05-10T08:37:43.209Z,3300
2018-05-10T08:38:52.060Z,3292
2018-05-10T08:40:00.909Z,3256
2018-05-10T08:41:10.054Z,3288
2018-05-10T08:42:18.900Z,3348
2018-05-10T08:43:27.842Z,3376
2018-05-10T08:44:36.813Z,3440
2018-05-10T08:45:45.653Z,3452
2018-05-10T08:46:54.782Z,3460
2018-05-10T08:48:03.908Z,3452
2018-05-10T08:49:13.283Z,3488
2018-05-10T08:50:22.413Z,3516
2018-05-10T08:51:31.294Z,3532
2018-05-10T08:52:40.916Z,3604
2018-05-10T08:53:49.755Z,3648
2018-05-10T08:54:59.244Z,3584
2018-05-10T08:56:08.085Z,3608
2018-05-10T08:57:16.924Z,3760
2018-05-10T08:58:25.763Z,3868
2018-05-10T08:59:34.609Z,3924
2018-05-10T09:00:43.448Z,4024
2018-05-10T09:01:52.575Z,4096
2018-05-10T09:03:01.447Z,4036
2018-05-10T09:04:10.358Z,4116
2018-05-10T09:05:19.208Z,4216
2018-05-10T09:06:28.058Z,4276
2018-05-10T09:07:37.173Z,4348
2018-05-10T09:08:46.011Z,4336
2018-05-10T09:09:55.205Z,4208
2018-05-10T09:11:04.595Z,4468
2018-05-10T09:12:13.435Z,4672
2018-05-10T09:13:22.551Z,4676
2018-05-10T09:14:31.392Z,4824
2018-05-10T09:15:40.230Z,4788
2018-05-10T09:16:49.353Z,4748
2018-05-10T09:17:58.543Z,4996
2018-05-10T09:19:07.664Z,5272
2018-05-10T09:20:16.883Z,5364
2018-05-10T09:21:25.618Z,5364
2018-05-10T09:22:34.456Z,5436
2018-05-10T09:23:43.671Z,5472
2018-05-10T09:24:52.800Z,5212
2018-05-10T09:26:02.144Z,5204
2018-05-10T09:27:10.886Z,5068
2018-05-10T09:28:19.729Z,5344
2018-05-10T09:29:28.616Z,5820
2018-05-10T09:30:37.456Z,6216
2018-05-10T09:31:46.300Z,6528
2018-05-10T09:32:55.414Z,6588
2018-05-10T09:34:04.253Z,6956
2018-05-10T09:35:13.524Z,7320
2018-05-10T09:36:22.367Z,7604
2018-05-10T09:37:31.203Z,7748
2018-05-10T09:38:40.042Z,7648
2018-05-10T09:39:48.884Z,7456
2018-05-10T09:40:58.049Z,7720
2018-05-10T09:42:06.889Z,8304
2018-05-10T09:43:16.003Z,8456
2018-05-10T09:44:24.844Z,8692
2018-05-10T09:45:33.959Z,7876
2018-05-10T09:46:42.850Z,7508
2018-05-10T09:47:51.688Z,7652
2018-05-10T09:49:00.803Z,7664
2018-05-10T09:50:09.648Z,7948
2018-05-10T09:51:18.762Z,8408
2018-05-10T09:52:27.700Z,8208
2018-05-10T09:53:36.539Z,8084
2018-05-10T09:54:45.652Z,8164
2018-05-10T09:55:54.768Z,7816
2018-05-10T09:57:03.609Z,7996
2018-05-10T09:58:12.801Z,8616
2018-05-10T09:59:21.645Z,8548
2018-05-10T10:00:31.094Z,8288
2018-05-10T10:01:39.935Z,8536
2018-05-10T10:02:49.052Z,8496
2018-05-10T10:03:58.039Z,8924
2018-05-10T10:05:06.882Z,9204
2018-05-10T10:06:16.143Z,9980
2018-05-10T10:07:24.941Z,10952
2018-05-10T10:08:33.783Z,9236
2018-05-10T10:09:42.772Z,8304
2018-05-10T10:10:51.612Z,8348
2018-05-10T10:12:00.726Z,8468
2018-05-10T10:13:09.567Z,8484
2018-05-10T10:14:18.417Z,8292
2018-05-10T10:15:27.303Z,8632
2018-05-10T10:16:36.144Z,8464
2018-05-10T10:17:44.986Z,8360
2018-05-10T10:18:53.824Z,8516
2018-05-10T10:20:02.940Z,8516
2018-05-10T10:21:12.055Z,8732
2018-05-10T10:22:21.174Z,8936
2018-05-10T10:23:30.297Z,8912
2018-05-10T10:24:39.411Z,9076
2018-05-10T10:25:48.254Z,9292
2018-05-10T10:26:57.340Z,9460
2018-05-10T10:28:06.176Z,9500
2018-05-10T10:29:15.018Z,9676
2018-05-10T10:30:23.859Z,10012
2018-05-10T10:31:32.701Z,10060
2018-05-10T10:32:41.550Z,10092
2018-05-10T10:33:50.668Z,10184
2018-05-10T10:34:59.511Z,10408
2018-05-10T10:36:08.352Z,11156
2018-05-10T10:37:17.478Z,10952
2018-05-10T10:38:26.420Z,11092
2018-05-10T10:39:35.259Z,10816
2018-05-10T10:40:44.103Z,11384
2018-05-10T10:41:53.218Z,11544
2018-05-10T10:43:02.337Z,11504
2018-05-10T10:44:11.376Z,10768
2018-05-10T10:45:20.793Z,10432
2018-05-10T10:46:29.918Z,10532
2018-05-10T10:47:38.758Z,10620
2018-05-10T10:48:47.600Z,10744
2018-05-10T10:49:56.782Z,11392
2018-05-10T10:51:05.625Z,11092
2018-05-10T10:52:14.461Z,11052
2018-05-10T10:53:23.591Z,10664
2018-05-10T10:54:32.432Z,10232
2018-05-10T10:55:41.432Z,10452
2018-05-10T10:56:50.260Z,10444
2018-05-10T10:57:59.099Z,10600
2018-05-10T10:59:08.221Z,10788
2018-05-10T11:00:17.059Z,10612
2018-05-10T11:01:25.899Z,11016
2018-05-10T11:02:34.742Z,11540
2018-05-10T11:03:43.583Z,11720
2018-05-10T11:04:52.424Z,11640
2018-05-10T11:06:01.264Z,11788
2018-05-10T11:07:10.438Z,11960
2018-05-10T11:08:19.275Z,12024
2018-05-10T11:09:28.117Z,12436
2018-05-10T11:10:36.958Z,13072
2018-05-10T11:11:45.800Z,13368
2018-05-10T11:12:54.640Z,13508
2018-05-10T11:14:03.480Z,13644
2018-05-10T11:15:12.765Z,13820
2018-05-10T11:16:21.609Z,14908
2018-05-10T11:17:30.449Z,12376
2018-05-10T11:18:39.618Z,13376
2018-05-10T11:19:48.738Z,14064
2018-05-10T11:20:57.954Z,13656
2018-05-10T11:22:07.076Z,13764
2018-05-10T11:23:16.196Z,14616
2018-05-10T11:24:25.035Z,15536
2018-05-10T11:25:33.877Z,15776
2018-05-10T11:26:43.270Z,16132
2018-05-10T11:27:52.112Z,13424
2018-05-10T11:29:00.956Z,16336
2018-05-10T11:30:09.847Z,16968
2018-05-10T11:31:18.688Z,13860
2018-05-10T11:32:27.529Z,15492
2018-05-10T11:33:36.369Z,16144
2018-05-10T11:34:45.488Z,16868
2018-05-10T11:35:54.755Z,13948
2018-05-10T11:37:03.880Z,14316
2018-05-10T11:38:12.715Z,18976
2018-05-10T11:39:21.558Z,20352
2018-05-10T11:40:30.399Z,18464
2018-05-10T11:41:39.488Z,14292
2018-05-10T11:42:48.336Z,13900
2018-05-10T11:43:57.176Z,14492
2018-05-10T11:45:06.018Z,17536
2018-05-10T11:46:14.858Z,20160
2018-05-10T11:47:23.856Z,20128
2018-05-10T11:48:32.696Z,20224
2018-05-10T11:49:41.538Z,18240
2018-05-10T11:50:50.380Z,14992
2018-05-10T11:51:59.496Z,14724
2018-05-10T11:53:08.538Z,13164
2018-05-10T11:54:17.381Z,13408
2018-05-10T11:55:26.222Z,13508
2018-05-10T11:56:35.065Z,12892
2018-05-10T11:57:44.182Z,11192
2018-05-10T11:58:53.953Z,13216
2018-05-10T12:00:03.069Z,24544
2018-05-10T12:01:11.915Z,9460
2018-05-10T12:02:20.753Z,8004
2018-05-10T12:03:29.595Z,7980
2018-05-10T12:04:38.785Z,7212
2018-05-10T12:05:47.907Z,5404
2018-05-10T12:06:56.747Z,4364
2018-05-10T12:08:05.593Z,5132
2018-05-10T12:09:14.985Z,6412
2018-05-10T12:10:24.458Z,7032
2018-05-10T12:11:33.317Z,4616
2018-05-10T12:12:42.144Z,4648
2018-05-10T12:13:50.986Z,6276
2018-05-10T12:14:59.828Z,6496
2018-05-10T12:16:09.042Z,5252
2018-05-10T12:17:17.882Z,5428
2018-05-10T12:18:26.718Z,5664
2018-05-10T12:19:35.836Z,8720
2018-05-10T12:20:44.681Z,6292
2018-05-10T12:21:53.676Z,6260
2018-05-10T12:23:02.509Z,4044
2018-05-10T12:24:11.359Z,4704
2018-05-10T12:25:20.474Z,5812
2018-05-10T12:26:29.862Z,4864
2018-05-10T12:27:39.131Z,5120
2018-05-10T12:28:47.969Z,4520
2018-05-10T12:29:56.807Z,5428
2018-05-10T12:31:05.719Z,4356
2018-05-10T12:32:14.488Z,4224
2018-05-10T12:33:24.006Z,3976
2018-05-10T12:34:32.847Z,3624
2018-05-10T12:35:41.683Z,3352
2018-05-10T12:36:50.805Z,3364
2018-05-10T12:37:59.644Z,3408
2018-05-10T12:39:08.482Z,4036
2018-05-10T12:40:17.599Z,5360
2018-05-10T12:41:26.440Z,6444
2018-05-10T12:42:35.278Z,7052
2018-05-10T12:43:44.670Z,6684
2018-05-10T12:44:53.609Z,6568
2018-05-10T12:46:02.448Z,7160
2018-05-10T12:47:11.288Z,7028
2018-05-10T12:48:20.129Z,6988
2018-05-10T12:49:28.972Z,7084
2018-05-10T12:50:38.161Z,6436
2018-05-10T12:51:47.272Z,5060
2018-05-10T12:52:56.384Z,3704
2018-05-10T12:54:05.232Z,2976
2018-05-10T12:55:14.060Z,2948
2018-05-10T12:56:23.064Z,3128
2018-05-10T12:57:31.843Z,3160
2018-05-10T12:58:40.683Z,3444
2018-05-10T12:59:49.522Z,3652
2018-05-10T13:00:58.362Z,3956
2018-05-10T13:02:07.298Z,3720
2018-05-10T13:03:16.139Z,3888
2018-05-10T13:04:24.977Z,4084
2018-05-10T13:05:34.090Z,4012
2018-05-10T13:06:43.212Z,3928
2018-05-10T13:07:52.459Z,4208
2018-05-10T13:09:01.297Z,4484
2018-05-10T13:10:10.136Z,4256
2018-05-10T13:11:19.264Z,3832
2018-05-10T13:12:28.107Z,3588
2018-05-10T13:13:37.535Z,4480
2018-05-10T13:14:46.651Z,4320
2018-05-10T13:15:55.769Z,3720
2018-05-10T13:17:04.891Z,3720
2018-05-10T13:18:14.007Z,3616
2018-05-10T13:19:23.200Z,3040
2018-05-10T13:20:31.998Z,3084
2018-05-10T13:21:40.884Z,3124
2018-05-10T13:22:49.668Z,2896
2018-05-10T13:23:58.507Z,2832
2018-05-10T13:25:07.362Z,2824
2018-05-10T13:26:16.483Z,2828
2018-05-10T13:27:26.233Z,2560
2018-05-10T13:28:34.985Z,2448
2018-05-10T13:29:43.824Z,2156
2018-05-10T13:30:52.760Z,2172
2018-05-10T13:32:01.601Z,2040
2018-05-10T13:33:10.442Z,2168
2018-05-10T13:34:19.277Z,2352
2018-05-10T13:35:28.389Z,2528
2018-05-10T13:36:37.280Z,3372
2018-05-10T13:37:46.397Z,3580
2018-05-10T13:38:55.286Z,3756
2018-05-10T13:40:04.429Z,3748
2018-05-10T13:41:13.509Z,4000
2018-05-10T13:42:22.346Z,3936
2018-05-10T13:43:31.186Z,4308
2018-05-10T13:44:40.022Z,3736
2018-05-10T13:45:48.860Z,4500
2018-05-10T13:46:57.769Z,6124
2018-05-10T13:48:06.633Z,7252
2018-05-10T13:49:15.469Z,7980
2018-05-10T13:50:24.996Z,8056
2018-05-10T13:51:34.107Z,9532
2018-05-10T13:52:43.222Z,10580
2018-05-10T13:53:52.110Z,7700
2018-05-10T13:55:00.946Z,6176
2018-05-10T13:56:09.781Z,9984
2018-05-10T13:57:18.625Z,12796
2018-05-10T13:58:27.463Z,13024
2018-05-10T13:59:36.449Z,12544
2018-05-10T14:00:45.286Z,12412
2018-05-10T14:01:54.123Z,11588
2018-05-10T14:03:02.958Z,9532
2018-05-10T14:04:11.797Z,11152
2018-05-10T14:05:21.059Z,11384
2018-05-10T14:06:29.896Z,9872
2018-05-10T14:07:38.743Z,8632
2018-05-10T14:08:47.574Z,7928
2018-05-10T14:09:56.410Z,7492
2018-05-10T14:11:05.652Z,8356
2018-05-10T14:12:14.418Z,7748
2018-05-10T14:13:23.257Z,9152
2018-05-10T14:14:32.096Z,11756
2018-05-10T14:15:41.210Z,12232
2018-05-10T14:16:50.196Z,15088
2018-05-10T14:17:59.037Z,13380
2018-05-10T14:19:07.875Z,9736
2018-05-10T14:20:16.718Z,8160
2018-05-10T14:21:25.559Z,6836
2018-05-10T14:22:34.550Z,6572
2018-05-10T14:23:43.668Z,5032
2018-05-10T14:24:52.505Z,5268
2018-05-10T14:26:01.347Z,5996
2018-05-10T14:27:10.188Z,6040
2018-05-10T14:28:19.174Z,6588
2018-05-10T14:29:28.572Z,6820
2018-05-10T14:30:37.683Z,5688
2018-05-10T14:31:46.521Z,4200
2018-05-10T14:32:55.669Z,3164
2018-05-10T14:34:04.499Z,2812
2018-05-10T14:35:13.336Z,3284
2018-05-10T14:36:22.174Z,4128
2018-05-10T14:37:31.012Z,5248
2018-05-10T14:38:40.131Z,8292
2018-05-10T14:39:49.404Z,8868
2018-05-10T14:40:58.525Z,8800
2018-05-10T14:42:07.364Z,9008
2018-05-10T14:43:16.199Z,9736
2018-05-10T14:44:25.313Z,12472
2018-05-10T14:45:34.197Z,12436
2018-05-10T14:46:43.105Z,13892
2018-05-10T14:47:52.229Z,15728
2018-05-10T14:49:01.063Z,17056
2018-05-10T14:50:10.183Z,14636
2018-05-10T14:51:19.375Z,11872
2018-05-10T14:52:28.212Z,9844
2018-05-10T14:53:37.055Z,9196
2018-05-10T14:54:45.889Z,9136
2018-05-10T14:55:54.727Z,8420
2018-05-10T14:57:03.943Z,7604
2018-05-10T14:58:13.065Z,7412
2018-05-10T14:59:21.904Z,7132
2018-05-10T15:00:30.743Z,7024
2018-05-10T15:01:39.583Z,7184
2018-05-10T15:02:48.727Z,7740
2018-05-10T15:03:57.845Z,8896
2018-05-10T15:05:06.960Z,9524
2018-05-10T15:06:15.800Z,8680
2018-05-10T15:07:24.912Z,7088
2018-05-10T15:08:33.749Z,6032
2018-05-10T15:09:42.588Z,5740
2018-05-10T15:10:51.711Z,5392
2018-05-10T15:12:00.551Z,4656
2018-05-10T15:13:09.388Z,4096
2018-05-10T15:14:18.272Z,3468
2018-05-10T15:15:27.112Z,3972
2018-05-10T15:16:35.953Z,3700
2018-05-10T15:17:44.841Z,3264
2018-05-10T15:18:53.623Z,4052
2018-05-10T15:20:02.611Z,4288
2018-05-10T15:21:11.453Z,4616
2018-05-10T15:22:20.285Z,4708
2018-05-10T15:23:29.122Z,6040
2018-05-10T15:24:37.958Z,5920
2018-05-10T15:25:47.169Z,5732
2018-05-10T15:26:56.004Z,5620
2018-05-10T15:28:04.847Z,5168
2018-05-10T15:29:13.682Z,5848
2018-05-10T15:30:22.520Z,5804
2018-05-10T15:31:31.639Z,5924
2018-05-10T15:32:40.751Z,5724
2018-05-10T15:33:49.586Z,5256
2018-05-10T15:34:58.424Z,4808
2018-05-10T15:36:07.262Z,4772
2018-05-10T15:37:16.100Z,4860